createdAt,value
2018-02-24T00:00:26.592Z,16.62
2018-02-24T00:02:55.583Z,19.58
2018-02-24T00:05:24.148Z,19.37
2018-02-24T00:07:53.144Z,21.80
2018-02-24T00:10:22.217Z,23.35
2018-02-24T00:12:51.596Z,18.25
2018-02-24T00:15:21.332Z,21.95
2018-02-24T00:17:50.597Z,20.75
2018-02-24T00:20:20.909Z,18.10
2018-02-24T00:22:50.495Z,24.45
2018-02-24T00:25:18.588Z,23.00
2018-02-24T00:27:47.970Z,25.23
2018-02-24T00:30:16.191Z,31.50
2018-02-24T00:32:44.820Z,26.37
2018-02-24T00:35:14.468Z,20.85
2018-02-24T00:37:44.217Z,26.85
2018-02-24T00:40:12.472Z,24.90
2018-02-24T00:42:40.872Z,25.88
2018-02-24T00:45:09.116Z,23.25
2018-02-24T00:47:37.340Z,29.75
2018-02-24T00:50:05.929Z,27.95
2018-02-24T00:52:34.925Z,27.60
2018-02-24T00:55:03.912Z,25.77
2018-02-24T00:57:33.071Z,30.08
2018-02-24T01:00:02.074Z,25.55
2018-02-24T01:02:30.304Z,22.15
2018-02-24T01:04:58.716Z,27.23
2018-02-24T01:07:26.944Z,26.95
2018-02-24T01:09:55.936Z,22.65
2018-02-24T01:12:25.037Z,32.00
2018-02-24T01:14:54.768Z,34.17
2018-02-24T01:17:24.157Z,29.17
2018-02-24T01:19:53.021Z,26.83
2018-02-24T01:22:22.385Z,27.67
2018-02-24T01:24:51.959Z,32.50
2018-02-24T01:27:21.204Z,24.30
2018-02-24T01:29:50.567Z,24.87
2018-02-24T01:32:19.933Z,29.17
2018-02-24T01:34:49.932Z,27.87
2018-02-24T01:37:18.929Z,28.38
2018-02-24T01:39:47.927Z,25.98
2018-02-24T01:42:16.463Z,27.50
2018-02-24T01:44:46.048Z,27.02
2018-02-24T01:47:14.168Z,27.60
2018-02-24T01:49:43.024Z,25.17
2018-02-24T01:52:12.024Z,25.90
2018-02-24T01:54:40.269Z,25.30
2018-02-24T01:57:09.109Z,25.55
2018-02-24T01:59:37.324Z,29.40
2018-02-24T02:02:06.687Z,28.35
2018-02-24T02:04:35.317Z,26.25
2018-02-24T02:07:04.304Z,27.13
2018-02-24T02:09:32.537Z,30.30
2018-02-24T02:12:02.283Z,33.70
2018-02-24T02:14:30.784Z,24.60
2018-02-24T02:16:59.008Z,28.98
2018-02-24T02:19:29.728Z,23.50
2018-02-24T02:21:58.208Z,29.35
2018-02-24T02:24:27.199Z,29.48
2018-02-24T02:26:55.804Z,27.17
2018-02-24T02:29:25.384Z,29.48
2018-02-24T02:31:53.488Z,27.90
2018-02-24T02:34:22.472Z,23.52
2018-02-24T02:36:52.060Z,28.15
2018-02-24T02:39:21.512Z,25.85
2018-02-24T02:41:50.494Z,24.77
2018-02-24T02:44:18.729Z,25.35
2018-02-24T02:46:46.956Z,26.77
2018-02-24T02:49:17.664Z,30.83
2018-02-24T02:51:46.664Z,28.30
2018-02-24T02:54:15.300Z,24.55
2018-02-24T02:56:43.689Z,32.20
2018-02-24T02:59:12.704Z,26.65
2018-02-24T03:01:41.337Z,28.15
2018-02-24T03:04:10.254Z,23.52
2018-02-24T03:06:38.908Z,28.80
2018-02-24T03:09:07.127Z,30.25
2018-02-24T03:11:39.019Z,28.38
2018-02-24T03:14:07.236Z,22.25
2018-02-24T03:16:35.469Z,27.65
2018-02-24T03:21:38.133Z,23.40
2018-02-24T03:24:06.696Z,29.08
2018-02-24T03:26:34.944Z,26.27
2018-02-24T03:29:05.741Z,25.92
2018-02-24T03:31:35.358Z,26.60
2018-02-24T03:34:04.190Z,33.47
2018-02-24T03:36:33.521Z,24.63
2018-02-24T03:39:03.256Z,27.85
2018-02-24T03:41:32.634Z,26.90
2018-02-24T03:44:02.507Z,25.27
2018-02-24T03:46:30.613Z,28.17
2018-02-24T03:48:59.603Z,27.50
2018-02-24T03:51:28.939Z,27.85
2018-02-24T03:53:57.156Z,29.75
2018-02-24T03:56:26.734Z,28.45
2018-02-24T03:58:56.033Z,24.85
2018-02-24T04:01:25.398Z,26.27
2018-02-24T04:03:54.971Z,25.10
2018-02-24T04:06:23.999Z,26.55
2018-02-24T04:08:53.728Z,29.60
2018-02-24T04:11:22.353Z,28.65
2018-02-24T04:13:52.263Z,29.30
2018-02-24T04:16:20.368Z,87.75
2018-02-24T04:18:49.722Z,28.08
2018-02-24T04:21:18.388Z,28.15
2018-02-24T04:23:46.621Z,28.38
2018-02-24T04:26:18.600Z,26.73
2018-02-24T04:28:48.319Z,26.75
2018-02-24T04:31:17.321Z,27.62
2018-02-24T04:33:45.559Z,27.23
2018-02-24T04:36:14.216Z,32.97
2018-02-24T04:38:43.802Z,29.48
2018-02-24T04:41:11.917Z,28.38
2018-02-24T04:43:41.504Z,24.60
2018-02-24T04:46:09.746Z,26.67
2018-02-24T04:48:37.964Z,30.02
2018-02-24T04:53:42.676Z,21.65
2018-02-24T04:56:12.427Z,29.87
2018-02-24T04:58:40.676Z,24.25
2018-02-24T05:01:10.057Z,27.77
2018-02-24T05:03:38.285Z,26.60
2018-02-24T05:06:06.511Z,29.12
2018-02-24T05:08:35.344Z,22.92
2018-02-24T05:11:04.703Z,27.83
2018-02-24T05:13:32.940Z,26.45
2018-02-24T05:16:01.480Z,26.45
2018-02-24T05:18:31.063Z,23.98
2018-02-24T05:20:59.310Z,28.67
2018-02-24T05:23:28.656Z,33.42
2018-02-24T05:25:57.275Z,26.80
2018-02-24T05:28:25.892Z,22.60
2018-02-24T05:30:57.045Z,30.37
2018-02-24T05:33:25.548Z,28.95
2018-02-24T05:35:55.128Z,23.10
2018-02-24T05:38:24.692Z,26.08
2018-02-24T05:40:52.915Z,23.50
2018-02-24T05:43:22.491Z,29.83
2018-02-24T05:45:50.752Z,27.15
2018-02-24T05:48:18.975Z,27.73
2018-02-24T05:50:47.199Z,30.60
2018-02-24T05:53:17.191Z,25.88
2018-02-24T05:55:46.552Z,25.92
2018-02-24T05:58:16.128Z,27.55
2018-02-24T06:00:45.960Z,30.08
2018-02-24T06:03:15.423Z,30.80
2018-02-24T06:05:44.897Z,29.23
2018-02-24T06:08:15.348Z,25.62
2018-02-24T06:10:44.216Z,29.63
2018-02-24T06:13:13.960Z,30.83
2018-02-24T06:15:42.664Z,29.85
2018-02-24T06:18:13.232Z,26.25
2018-02-24T06:20:42.149Z,29.80
2018-02-24T06:23:11.880Z,30.92
2018-02-24T06:25:40.116Z,31.27
2018-02-24T06:28:08.349Z,25.27
2018-02-24T06:30:38.616Z,27.73
2018-02-24T06:33:08.208Z,33.22
2018-02-24T06:35:37.663Z,28.15
2018-02-24T06:38:08.149Z,29.40
2018-02-24T06:40:36.773Z,31.83
2018-02-24T06:43:05.001Z,29.52
2018-02-24T06:45:33.549Z,26.42
2018-02-24T06:48:02.916Z,26.83
2018-02-24T06:50:31.135Z,31.83
2018-02-24T06:53:00.667Z,29.42
2018-02-24T06:55:29.308Z,25.92
2018-02-24T06:57:58.313Z,29.37
2018-02-24T07:00:27.990Z,24.52
2018-02-24T07:02:57.729Z,35.20
2018-02-24T07:05:25.964Z,22.10
2018-02-24T07:07:54.695Z,27.33
2018-02-24T07:10:22.924Z,28.30
2018-02-24T07:12:52.285Z,28.05
2018-02-24T07:15:21.173Z,27.20
2018-02-24T07:17:50.748Z,29.33
2018-02-24T07:20:18.852Z,25.65
2018-02-24T07:22:47.613Z,29.33
2018-02-24T07:25:16.605Z,28.38
2018-02-24T07:27:44.837Z,28.65
2018-02-24T07:30:13.229Z,25.85
2018-02-24T07:32:43.444Z,27.95
2018-02-24T07:35:11.680Z,27.15
2018-02-24T07:37:42.357Z,31.75
2018-02-24T07:40:10.628Z,24.98
2018-02-24T07:42:39.611Z,27.05
2018-02-24T07:45:08.568Z,26.25
2018-02-24T07:47:37.560Z,29.23
2018-02-24T07:50:05.792Z,25.37
2018-02-24T07:52:35.428Z,23.15
2018-02-24T07:55:04.052Z,23.33
2018-02-24T07:57:32.280Z,28.83
2018-02-24T08:00:01.717Z,26.92
2018-02-24T08:02:29.960Z,24.40
2018-02-24T08:04:58.587Z,27.05
2018-02-24T08:07:27.084Z,34.08
2018-02-24T08:09:56.816Z,28.40
2018-02-24T08:12:26.399Z,26.10
2018-02-24T08:14:55.879Z,25.12
2018-02-24T08:17:24.876Z,25.67
2018-02-24T08:19:53.102Z,31.15
2018-02-24T08:22:23.259Z,22.40
2018-02-24T08:24:52.133Z,22.67
2018-02-24T08:27:20.359Z,26.45
2018-02-24T08:29:50.315Z,23.25
2018-02-24T08:32:19.783Z,21.90
2018-02-24T08:34:49.232Z,22.53
2018-02-24T08:37:18.152Z,23.73
2018-02-24T08:39:46.385Z,20.83
2018-02-24T08:42:16.120Z,23.97
2018-02-24T08:44:45.356Z,20.93
2018-02-24T08:47:14.370Z,18.40
2018-02-24T08:49:42.620Z,18.67
2018-02-24T08:52:11.094Z,20.17
2018-02-24T08:54:39.376Z,15.20
2018-02-24T08:57:08.986Z,22.33
2018-02-24T08:59:38.427Z,21.10
2018-02-24T09:02:07.056Z,22.10
2018-02-24T09:04:35.289Z,17.60
2018-02-24T09:07:04.531Z,18.90
2018-02-24T09:09:34.271Z,20.57
2018-02-24T09:12:02.500Z,18.77
2018-02-24T09:14:32.543Z,19.30
2018-02-24T09:17:01.544Z,16.40
2018-02-24T09:19:29.785Z,61.40
2018-02-24T09:21:59.108Z,17.80
2018-02-24T09:24:28.124Z,19.20
2018-02-24T09:26:56.355Z,17.87
2018-02-24T09:29:24.729Z,18.03
2018-02-24T09:31:52.960Z,20.80
2018-02-24T09:34:21.193Z,17.10
2018-02-24T09:36:52.592Z,17.07
2018-02-24T09:39:21.592Z,17.27
2018-02-24T09:41:49.828Z,19.83
2018-02-24T09:44:18.988Z,17.70
2018-02-24T09:46:47.985Z,14.87
2018-02-24T09:49:16.222Z,16.87
2018-02-24T09:51:46.120Z,16.97
2018-02-24T09:54:14.369Z,16.80
2018-02-24T09:56:43.749Z,16.20
2018-02-24T09:59:12.345Z,16.30
2018-02-24T10:01:40.596Z,17.13
2018-02-24T10:04:08.886Z,17.90
2018-02-24T10:06:38.056Z,16.97
2018-02-24T10:09:07.061Z,13.50
2018-02-24T10:11:36.052Z,16.33
2018-02-24T10:14:05.216Z,16.43
2018-02-24T10:16:34.951Z,19.33
2018-02-24T10:19:04.536Z,17.97
2018-02-24T10:21:33.088Z,15.40
2018-02-24T10:24:02.828Z,16.70
2018-02-24T10:26:31.828Z,14.60
2018-02-24T10:29:01.391Z,14.93
2018-02-24T10:31:29.632Z,15.03
2018-02-24T10:33:57.909Z,17.93
2018-02-24T10:36:27.515Z,12.20
2018-02-24T10:38:58.375Z,16.43
2018-02-24T10:41:26.485Z,17.40
2018-02-24T10:43:55.899Z,16.13
2018-02-24T10:46:25.640Z,15.97
2018-02-24T10:49:01.327Z,15.13
2018-02-24T10:51:29.834Z,14.20
2018-02-24T10:53:58.073Z,16.40
2018-02-24T10:56:27.254Z,11.93
2018-02-24T10:58:56.276Z,14.97
2018-02-24T11:01:24.512Z,13.53
2018-02-24T11:03:53.637Z,13.20
2018-02-24T11:06:22.635Z,14.67
2018-02-24T11:08:50.868Z,13.70
2018-02-24T11:11:20.621Z,17.20
2018-02-24T11:13:49.559Z,13.87
2018-02-24T11:16:18.176Z,13.90
2018-02-24T11:18:47.391Z,13.70
2018-02-24T11:21:16.401Z,14.60
2018-02-24T11:23:45.420Z,13.57
2018-02-24T11:26:14.664Z,12.93
2018-02-24T11:28:43.680Z,11.53
2018-02-24T11:31:12.668Z,12.90
2018-02-24T11:33:42.216Z,12.27
2018-02-24T11:36:11.960Z,13.83
2018-02-24T11:38:40.196Z,12.90
2018-02-24T11:41:10.224Z,12.10
2018-02-24T11:43:38.462Z,12.67
2018-02-24T11:46:06.694Z,13.27
2018-02-24T11:48:36.639Z,12.43
2018-02-24T11:51:06.368Z,9.87
2018-02-24T11:53:34.989Z,10.80
2018-02-24T11:56:04.868Z,11.50
2018-02-24T11:58:33.108Z,12.90
2018-02-24T12:01:01.348Z,9.17
2018-02-24T12:03:30.051Z,9.93
2018-02-24T12:05:59.633Z,8.50
2018-02-24T12:08:27.786Z,10.47
2018-02-24T12:10:57.247Z,8.10
2018-02-24T12:13:26.819Z,13.47
2018-02-24T12:15:55.694Z,8.90
2018-02-24T12:18:24.151Z,9.10
2018-02-24T12:20:52.764Z,9.07
2018-02-24T12:23:22.341Z,9.23
2018-02-24T12:25:50.981Z,8.40
2018-02-24T12:28:19.200Z,7.50
2018-02-24T12:30:48.581Z,7.63
2018-02-24T12:33:17.868Z,10.80
2018-02-24T12:35:46.501Z,7.30
2018-02-24T12:38:14.732Z,8.70
2018-02-24T12:40:43.688Z,7.83
2018-02-24T12:43:13.456Z,8.70
2018-02-24T12:45:41.692Z,9.13
2018-02-24T12:48:10.228Z,7.67
2018-02-24T12:50:39.221Z,6.80
2018-02-24T12:53:07.448Z,7.90
2018-02-24T12:55:37.556Z,8.63
2018-02-24T12:58:05.776Z,7.20
2018-02-24T13:00:34.017Z,7.53
2018-02-24T13:03:02.548Z,6.77
2018-02-24T13:05:30.789Z,8.57
2018-02-24T13:08:00.179Z,6.93
2018-02-24T13:10:28.755Z,6.47
2018-02-24T13:12:56.968Z,7.83
2018-02-24T13:15:25.197Z,8.03
2018-02-24T13:17:53.612Z,7.30
2018-02-24T13:20:23.340Z,7.00
2018-02-24T13:22:51.569Z,7.53
2018-02-24T13:25:24.690Z,8.73
2018-02-24T13:27:53.681Z,8.00
2018-02-24T13:30:21.900Z,8.03
2018-02-24T13:32:51.045Z,6.83
2018-02-24T13:35:20.024Z,8.03
2018-02-24T13:37:48.263Z,7.40
2018-02-24T13:40:18.126Z,6.87
2018-02-24T13:42:47.736Z,6.80
2018-02-24T13:45:16.590Z,7.90
2018-02-24T13:47:45.899Z,10.07
2018-02-24T13:50:14.121Z,7.67
2018-02-24T13:52:43.107Z,6.43
2018-02-24T13:55:12.679Z,5.97
2018-02-24T13:57:42.345Z,5.47
2018-02-24T14:00:10.564Z,5.70
2018-02-24T14:02:40.632Z,5.57
2018-02-24T14:05:08.907Z,9.17
2018-02-24T14:07:38.640Z,5.67
2018-02-24T14:10:07.869Z,5.57
2018-02-24T14:12:36.856Z,5.10
2018-02-24T14:15:06.428Z,5.77
2018-02-24T14:17:35.636Z,5.80
2018-02-24T14:20:05.368Z,5.63
2018-02-24T14:22:33.996Z,6.80
2018-02-24T14:25:04.536Z,6.30
2018-02-24T14:27:33.535Z,5.00
2018-02-24T14:30:01.776Z,8.13
2018-02-24T14:32:31.005Z,7.63
2018-02-24T14:35:00.033Z,5.10
2018-02-24T14:37:28.960Z,6.20
2018-02-24T14:39:57.446Z,7.30
2018-02-24T14:42:26.432Z,6.67
2018-02-24T14:44:56.008Z,6.50
2018-02-24T14:47:24.988Z,7.13
2018-02-24T14:49:53.652Z,5.40
2018-02-24T14:52:23.275Z,6.63
2018-02-24T14:54:54.812Z,8.10
2018-02-24T14:57:24.395Z,5.80
2018-02-24T14:59:53.677Z,6.80
2018-02-24T16:17:27.313Z,15.48
2018-02-24T16:19:57.204Z,10.10
2018-02-24T16:22:26.995Z,9.82
2018-02-24T16:24:56.452Z,10.45
2018-02-24T16:27:25.911Z,8.90
2018-02-24T16:29:55.181Z,8.50
2018-02-24T16:32:24.204Z,10.65
2018-02-24T16:34:53.196Z,11.68
2018-02-24T16:37:22.193Z,10.48
2018-02-24T16:39:50.453Z,10.13
2018-02-24T16:42:18.688Z,11.75
2018-02-24T16:44:47.692Z,11.23
2018-02-24T16:47:17.303Z,9.45
2018-02-24T16:49:46.172Z,10.32
2018-02-24T16:52:14.394Z,8.40
2018-02-24T16:54:43.040Z,9.93
2018-02-24T16:57:11.260Z,8.93
2018-02-24T16:59:39.484Z,9.30
2018-02-24T17:02:08.500Z,7.65
2018-02-24T17:04:38.073Z,7.93
2018-02-24T17:07:06.592Z,10.75
2018-02-24T17:09:35.258Z,6.95
2018-02-24T17:12:03.509Z,6.60
2018-02-24T17:14:31.752Z,7.60
2018-02-24T17:17:01.361Z,12.48
2018-02-24T17:19:30.920Z,7.72
2018-02-24T17:22:00.328Z,8.30
2018-02-24T17:24:28.637Z,6.37
2018-02-24T17:26:57.657Z,6.87
2018-02-24T17:29:25.875Z,6.93
2018-02-24T17:31:54.122Z,6.00
2018-02-24T17:34:24.092Z,6.00
2018-02-24T17:36:52.628Z,6.07
2018-02-24T17:39:22.191Z,7.70
2018-02-24T17:41:50.291Z,8.55
2018-02-24T17:44:19.899Z,4.97
2018-02-24T17:46:48.773Z,5.90
2018-02-24T17:49:18.355Z,7.87
2018-02-24T17:51:46.885Z,6.00
2018-02-24T17:54:15.492Z,7.07
2018-02-24T17:56:44.483Z,4.12
2018-02-24T17:59:13.128Z,4.97
2018-02-24T18:01:41.341Z,4.85
2018-02-24T18:04:09.568Z,7.72
2018-02-24T18:06:39.183Z,6.18
2018-02-24T18:09:07.676Z,3.55
2018-02-24T18:11:37.212Z,9.45
2018-02-24T18:14:05.820Z,5.07
2018-02-24T18:16:34.824Z,3.83
2018-02-24T18:19:03.108Z,3.60
2018-02-24T18:21:32.686Z,4.82
2018-02-24T18:24:00.792Z,4.87
2018-02-24T18:26:29.501Z,4.25
2018-02-24T18:28:58.500Z,3.40
2018-02-24T18:31:26.728Z,4.00
2018-02-24T18:33:56.788Z,8.02
2018-02-24T18:36:25.644Z,4.55
2018-02-24T18:38:53.917Z,4.07
2018-02-24T18:41:22.157Z,3.30
2018-02-24T18:43:51.904Z,2.50
2018-02-24T18:46:20.120Z,5.50
2018-02-24T18:48:48.364Z,4.20
2018-02-24T18:51:17.391Z,7.30
2018-02-24T18:53:45.997Z,5.68
2018-02-24T18:56:14.212Z,3.55
2018-02-24T18:58:43.976Z,4.90
2018-02-24T19:01:12.191Z,4.68
2018-02-24T19:03:40.408Z,3.35
2018-02-24T19:06:08.652Z,2.42
2018-02-24T19:08:36.876Z,3.10
2018-02-24T19:11:05.141Z,3.83
2018-02-24T19:13:34.724Z,3.25
2018-02-24T19:16:02.878Z,2.47
2018-02-24T19:18:31.110Z,2.70
2018-02-24T19:20:59.354Z,3.65
2018-02-24T19:23:28.978Z,3.10
2018-02-24T19:25:57.072Z,4.85
2018-02-24T19:28:26.052Z,3.80
2018-02-24T19:30:55.443Z,3.03
2018-02-24T19:33:23.660Z,2.83
2018-02-24T19:35:53.224Z,3.28
2018-02-24T19:38:21.748Z,3.47
2018-02-24T19:40:49.960Z,3.70
2018-02-24T19:43:18.185Z,2.80
2018-02-24T19:45:47.965Z,2.55
2018-02-24T19:48:16.185Z,5.75
2018-02-24T19:50:44.399Z,2.92
2018-02-24T19:53:12.656Z,2.20
2018-02-24T19:55:42.227Z,3.53
2018-02-24T19:58:10.742Z,3.03
2018-02-24T20:00:39.780Z,4.50
2018-02-24T20:03:08.760Z,1.75
2018-02-24T20:05:38.324Z,7.05
2018-02-24T20:08:07.821Z,5.15
2018-02-24T20:10:37.327Z,3.60
2018-02-24T20:13:06.708Z,2.85
2018-02-24T20:15:36.200Z,2.60
2018-02-24T20:18:05.648Z,2.72
2018-02-24T20:20:35.099Z,3.30
2018-02-24T20:23:04.536Z,4.20
2018-02-24T20:25:33.928Z,3.53
2018-02-24T20:28:02.169Z,7.65
2018-02-24T20:30:31.970Z,2.67
2018-02-24T20:33:00.181Z,3.08
2018-02-24T20:35:28.426Z,3.17
2018-02-24T20:37:58.225Z,2.62
2018-02-24T20:40:26.317Z,4.22
2018-02-24T20:42:54.532Z,2.97
2018-02-24T20:45:24.144Z,3.80
2018-02-24T20:47:52.632Z,4.35
2018-02-24T20:50:20.852Z,2.80
2018-02-24T20:52:49.129Z,7.12
2018-02-24T20:55:18.704Z,2.95
2018-02-24T20:57:47.212Z,3.28
2018-02-24T21:00:16.240Z,6.28
2018-02-24T21:02:45.224Z,3.10
2018-02-24T21:05:13.443Z,2.50
2018-02-24T21:07:42.936Z,2.50
2018-02-24T21:10:12.504Z,2.47
2018-02-24T21:12:40.597Z,5.93
2018-02-24T21:15:10.212Z,3.40
2018-02-24T21:17:39.660Z,3.80
2018-02-24T21:20:08.521Z,5.10
2018-02-24T21:22:37.212Z,5.82
2018-02-24T21:25:06.784Z,3.08
2018-02-24T21:27:36.393Z,4.45
2018-02-24T21:30:06.255Z,5.97
2018-02-24T21:32:34.749Z,3.85
2018-02-24T21:35:03.006Z,2.92
2018-02-24T21:37:31.745Z,4.20
2018-02-24T21:40:01.115Z,2.72
2018-02-24T21:42:29.348Z,2.87
2018-02-24T21:44:59.620Z,3.97
2018-02-24T21:47:29.244Z,2.70
2018-02-24T21:49:58.236Z,6.25
2018-02-24T21:52:26.664Z,3.28
2018-02-24T21:54:55.640Z,3.60
2018-02-24T21:57:23.857Z,2.78
2018-02-24T21:59:52.640Z,3.00
2018-02-24T22:02:23.508Z,3.47
2018-02-24T22:04:52.765Z,3.25
2018-02-24T22:07:21.141Z,3.33
2018-02-24T22:09:49.356Z,4.05
2018-02-24T22:12:18.951Z,3.00
2018-02-24T22:14:47.964Z,2.55
2018-02-24T22:17:19.960Z,2.67
2018-02-24T22:19:49.259Z,3.50
2018-02-24T22:22:18.996Z,3.85
2018-02-24T22:24:47.994Z,6.03
2018-02-24T22:27:16.644Z,2.83
2018-02-24T22:29:45.248Z,6.12
2018-02-24T22:32:13.468Z,4.50
2018-02-24T22:34:42.656Z,3.10
2018-02-24T22:37:11.640Z,3.60
2018-02-24T22:39:39.848Z,4.12
2018-02-24T22:42:08.479Z,6.80
2018-02-24T22:44:38.048Z,4.35
2018-02-24T22:47:06.141Z,3.15
2018-02-24T22:49:34.425Z,3.37
2018-02-24T22:52:04.152Z,2.72
2018-02-24T22:54:33.160Z,3.25
2018-02-24T22:57:01.410Z,5.75
2018-02-24T22:59:30.404Z,3.35
2018-02-24T23:01:59.034Z,3.85
2018-02-24T23:04:27.287Z,2.90
2018-02-24T23:06:55.500Z,3.30
2018-02-24T23:09:25.223Z,5.00
2018-02-24T23:11:54.836Z,4.40
2018-02-24T23:14:23.325Z,6.30
2018-02-24T23:16:52.305Z,4.15
2018-02-24T23:19:22.483Z,6.30
2018-02-24T23:21:51.724Z,4.75
2018-02-24T23:24:19.937Z,4.22
2018-02-24T23:26:48.229Z,3.67
2018-02-24T23:29:16.452Z,4.65
2018-02-24T23:31:45.076Z,8.70
2018-02-24T23:34:14.681Z,4.30
2018-02-24T23:36:42.776Z,5.62
2018-02-24T23:39:10.987Z,6.03
2018-02-24T23:41:39.241Z,4.15
2018-02-24T23:44:07.459Z,4.03
2018-02-24T23:46:36.813Z,3.47
2018-02-24T23:49:05.064Z,5.05
2018-02-24T23:51:33.285Z,3.25
2018-02-24T23:54:01.517Z,5.12
2018-02-24T23:56:30.500Z,3.80
2018-02-24T23:58:59.871Z,5.00
